Airfield :
LOGIN :

Register | Disclaimer

   EN    FR    IT 

 










Legend :    VFR   Marginal VFR   IFR   Intensive IFR   Very Intensive IFR
Visi :
Ceiling :
>= 8 km
>= 3000ft
5 to 8 km
1000 to 3000 ft
1500m to 5 km
500 to 1000 ft
800 to 1500m
200 to 500 ft
< 800m
< 200 ft
Symbols :   Thunderstorms  Fog  Heavy snow  Heavy precipitations  Wind > 20 kt
SIGMETs :     Misc.  Thunderstorms  Icing  Turbulence  Mountain Waves  Volcanic Ashes






- Airport Elevation : 1234 ft
- IATA code : LUX


ELLX - Luxembourg Findel

CURRENT METAR :
  • 022120Z 32007KT 280V340 CAVOK 20/08 Q1012 NOSIG

EXPIRED METARs :
  • 022050Z 31007KT CAVOK 20/08 Q1013 NOSIG
  • 022020Z 30006KT CAVOK 20/09 Q1013 NOSIG
  • 021950Z 27004KT CAVOK 21/10 Q1013 NOSIG
  • 021920Z 24004KT CAVOK 22/10 Q1013 NOSIG

TAF TAF ELLX
Valid from the 02 at 18:00 until the 04 at 00:00 UTC


021700Z 0218/0324 27004KT CAVOK
BECMG 0221/0224 36007KT
BECMG 0307/0310 27005KT
TEMPO 0311/0322 27015G30KT SHRA SCT060CB
PROB40
TEMPO 0313/0320 27020G35KT 4500 TSRA BKN050CB
ATIS : +352 4798 27300
Met : +352 4798 27010 / 27050



MET'MAP, your aeronautical weather chart ! - Copyright ORBIFLY December 2007 - Disclaimer

ORBIFLY MET'MAP TEAM :

Programming & Development : Alexandra Zaïnal
Concept & original design : Baudouin d'Aumeries
Assistance for programming : Marc-Olivier Méhu
Technical & hardware support : Manuel Goepfert

Contact : metmap@orbifly.com




SOURCES & CREDITS :

   NOAA